sensor_id;sensor_type;location;lat;lon;timestamp;temperature;humidity
48019;DHT22;33786;48.690;9.562;2023-08-17T00:01:34;19.20;99.90
48019;DHT22;33786;48.690;9.562;2023-08-17T00:04:01;19.10;99.90
48019;DHT22;33786;48.690;9.562;2023-08-17T00:06:28;19.10;99.90
48019;DHT22;33786;48.690;9.562;2023-08-17T00:08:55;19.00;99.90
48019;DHT22;33786;48.690;9.562;2023-08-17T00:11:22;18.90;99.90
48019;DHT22;33786;48.690;9.562;2023-08-17T00:13:48;18.80;99.90
48019;DHT22;33786;48.690;9.562;2023-08-17T00:16:15;18.80;99.90
48019;DHT22;33786;48.690;9.562;2023-08-17T00:18:43;18.80;99.90
48019;DHT22;33786;48.690;9.562;2023-08-17T00:21:10;18.80;99.90
48019;DHT22;33786;48.690;9.562;2023-08-17T00:23:37;18.70;99.90
48019;DHT22;33786;48.690;9.562;2023-08-17T00:26:03;18.80;99.90
48019;DHT22;33786;48.690;9.562;2023-08-17T00:28:30;18.80;99.90
48019;DHT22;33786;48.690;9.562;2023-08-17T00:30:57;18.80;99.90
48019;DHT22;33786;48.690;9.562;2023-08-17T00:33:23;18.80;99.90
48019;DHT22;33786;48.690;9.562;2023-08-17T00:35:50;18.80;99.90
48019;DHT22;33786;48.690;9.562;2023-08-17T00:38:17;18.80;99.90
48019;DHT22;33786;48.690;9.562;2023-08-17T00:40:44;18.70;99.90
48019;DHT22;33786;48.690;9.562;2023-08-17T00:43:11;18.70;99.90
48019;DHT22;33786;48.690;9.562;2023-08-17T00:45:37;18.70;99.90
48019;DHT22;33786;48.690;9.562;2023-08-17T00:48:04;18.60;99.90
48019;DHT22;33786;48.690;9.562;2023-08-17T00:50:34;18.60;99.90
48019;DHT22;33786;48.690;9.562;2023-08-17T00:53:01;18.50;99.90
48019;DHT22;33786;48.690;9.562;2023-08-17T00:55:28;18.50;99.90
48019;DHT22;33786;48.690;9.562;2023-08-17T00:57:55;18.50;99.90
48019;DHT22;33786;48.690;9.562;2023-08-17T01:00:22;18.50;99.90
48019;DHT22;33786;48.690;9.562;2023-08-17T01:02:50;18.50;99.90
48019;DHT22;33786;48.690;9.562;2023-08-17T01:05:17;18.50;99.90
48019;DHT22;33786;48.690;9.562;2023-08-17T01:07:44;18.40;99.90
48019;DHT22;33786;48.690;9.562;2023-08-17T01:10:11;18.30;99.90
48019;DHT22;33786;48.690;9.562;2023-08-17T01:12:41;18.30;99.90
48019;DHT22;33786;48.690;9.562;2023-08-17T01:17:58;18.20;99.90
48019;DHT22;33786;48.690;9.562;2023-08-17T01:20:27;18.10;99.90
48019;DHT22;33786;48.690;9.562;2023-08-17T01:22:55;18.10;99.90
48019;DHT22;33786;48.690;9.562;2023-08-17T01:25:23;18.00;99.90
48019;DHT22;33786;48.690;9.562;2023-08-17T01:27:50;18.00;99.90
48019;DHT22;33786;48.690;9.562;2023-08-17T01:30:17;18.00;99.90
48019;DHT22;33786;48.690;9.562;2023-08-17T01:32:48;17.90;99.90
48019;DHT22;33786;48.690;9.562;2023-08-17T01:35:53;17.90;99.90
48019;DHT22;33786;48.690;9.562;2023-08-17T01:38:12;17.80;99.90
48019;DHT22;33786;48.690;9.562;2023-08-17T01:40:39;17.90;99.90
48019;DHT22;33786;48.690;9.562;2023-08-17T01:43:07;17.90;99.90
48019;DHT22;33786;48.690;9.562;2023-08-17T01:45:35;17.90;99.90
48019;DHT22;33786;48.690;9.562;2023-08-17T01:48:02;17.80;99.90
48019;DHT22;33786;48.690;9.562;2023-08-17T01:50:29;17.80;99.90
48019;DHT22;33786;48.690;9.562;2023-08-17T01:52:55;17.70;99.90
48019;DHT22;33786;48.690;9.562;2023-08-17T01:55:22;17.80;99.90
48019;DHT22;33786;48.690;9.562;2023-08-17T01:57:53;17.90;99.90
48019;DHT22;33786;48.690;9.562;2023-08-17T02:00:20;17.90;99.90
48019;DHT22;33786;48.690;9.562;2023-08-17T02:02:46;17.90;99.90
48019;DHT22;33786;48.690;9.562;2023-08-17T02:05:13;17.90;99.90
48019;DHT22;33786;48.690;9.562;2023-08-17T02:07:40;17.80;99.90
48019;DHT22;33786;48.690;9.562;2023-08-17T02:10:07;17.80;99.90
48019;DHT22;33786;48.690;9.562;2023-08-17T02:12:33;17.80;99.90
48019;DHT22;33786;48.690;9.562;2023-08-17T02:15:00;17.70;99.90
48019;DHT22;33786;48.690;9.562;2023-08-17T02:17:27;17.70;99.90
48019;DHT22;33786;48.690;9.562;2023-08-17T02:19:54;17.60;99.90
48019;DHT22;33786;48.690;9.562;2023-08-17T02:22:21;17.60;99.90
48019;DHT22;33786;48.690;9.562;2023-08-17T02:24:47;17.50;99.90
48019;DHT22;33786;48.690;9.562;2023-08-17T02:27:14;17.40;99.90
48019;DHT22;33786;48.690;9.562;2023-08-17T02:29:41;17.40;99.90
48019;DHT22;33786;48.690;9.562;2023-08-17T02:32:08;17.40;99.90
48019;DHT22;33786;48.690;9.562;2023-08-17T02:34:36;17.40;99.90
48019;DHT22;33786;48.690;9.562;2023-08-17T02:37:03;17.40;99.90
48019;DHT22;33786;48.690;9.562;2023-08-17T02:39:29;17.30;99.90
48019;DHT22;33786;48.690;9.562;2023-08-17T02:41:56;17.30;99.90
48019;DHT22;33786;48.690;9.562;2023-08-17T02:44:23;17.30;99.90
48019;DHT22;33786;48.690;9.562;2023-08-17T02:46:52;17.30;99.90
48019;DHT22;33786;48.690;9.562;2023-08-17T02:49:19;17.30;99.90
48019;DHT22;33786;48.690;9.562;2023-08-17T02:51:46;17.30;99.90
48019;DHT22;33786;48.690;9.562;2023-08-17T02:54:13;17.20;99.90
48019;DHT22;33786;48.690;9.562;2023-08-17T02:56:40;17.20;99.90
48019;DHT22;33786;48.690;9.562;2023-08-17T02:59:06;17.20;99.90
48019;DHT22;33786;48.690;9.562;2023-08-17T03:01:33;17.10;99.90
48019;DHT22;33786;48.690;9.562;2023-08-17T03:04:00;17.10;99.90
48019;DHT22;33786;48.690;9.562;2023-08-17T03:06:27;17.10;99.90
48019;DHT22;33786;48.690;9.562;2023-08-17T03:08:53;17.00;99.90
48019;DHT22;33786;48.690;9.562;2023-08-17T03:11:20;17.00;99.90
48019;DHT22;33786;48.690;9.562;2023-08-17T03:13:47;17.00;99.90
48019;DHT22;33786;48.690;9.562;2023-08-17T03:16:15;17.00;99.90
48019;DHT22;33786;48.690;9.562;2023-08-17T03:18:42;17.00;99.90
48019;DHT22;33786;48.690;9.562;2023-08-17T03:21:11;17.00;99.90
48019;DHT22;33786;48.690;9.562;2023-08-17T03:23:38;17.00;99.90
48019;DHT22;33786;48.690;9.562;2023-08-17T03:26:05;17.00;99.90
48019;DHT22;33786;48.690;9.562;2023-08-17T03:28:31;17.00;99.90
48019;DHT22;33786;48.690;9.562;2023-08-17T03:30:58;17.00;99.90
48019;DHT22;33786;48.690;9.562;2023-08-17T03:33:25;17.00;99.90
48019;DHT22;33786;48.690;9.562;2023-08-17T03:35:52;17.00;99.90
48019;DHT22;33786;48.690;9.562;2023-08-17T03:38:18;16.90;99.90
48019;DHT22;33786;48.690;9.562;2023-08-17T03:40:46;17.00;99.90
48019;DHT22;33786;48.690;9.562;2023-08-17T03:43:13;16.90;99.90
48019;DHT22;33786;48.690;9.562;2023-08-17T03:45:43;16.90;99.90
48019;DHT22;33786;48.690;9.562;2023-08-17T03:48:09;16.90;99.90
48019;DHT22;33786;48.690;9.562;2023-08-17T03:50:36;16.90;99.90
48019;DHT22;33786;48.690;9.562;2023-08-17T03:53:03;16.90;99.90
48019;DHT22;33786;48.690;9.562;2023-08-17T03:55:30;16.90;99.90
48019;DHT22;33786;48.690;9.562;2023-08-17T03:57:57;16.90;99.90
48019;DHT22;33786;48.690;9.562;2023-08-17T04:00:23;16.90;99.90
48019;DHT22;33786;48.690;9.562;2023-08-17T04:02:50;17.00;99.90
48019;DHT22;33786;48.690;9.562;2023-08-17T04:05:17;17.00;99.90
48019;DHT22;33786;48.690;9.562;2023-08-17T04:07:44;17.00;99.90
48019;DHT22;33786;48.690;9.562;2023-08-17T04:10:11;17.00;99.90
48019;DHT22;33786;48.690;9.562;2023-08-17T04:12:38;17.10;99.90
48019;DHT22;33786;48.690;9.562;2023-08-17T04:15:04;17.20;99.90
48019;DHT22;33786;48.690;9.562;2023-08-17T04:17:31;17.30;99.90
48019;DHT22;33786;48.690;9.562;2023-08-17T04:19:58;17.30;99.90
48019;DHT22;33786;48.690;9.562;2023-08-17T04:22:25;17.40;99.90
48019;DHT22;33786;48.690;9.562;2023-08-17T04:24:52;17.40;99.90
48019;DHT22;33786;48.690;9.562;2023-08-17T04:27:18;17.50;99.90
48019;DHT22;33786;48.690;9.562;2023-08-17T04:29:45;17.60;99.90
48019;DHT22;33786;48.690;9.562;2023-08-17T04:32:15;17.70;99.90
48019;DHT22;33786;48.690;9.562;2023-08-17T04:34:43;17.90;99.90
48019;DHT22;33786;48.690;9.562;2023-08-17T04:37:10;18.00;99.90
48019;DHT22;33786;48.690;9.562;2023-08-17T04:39:36;18.10;99.90
48019;DHT22;33786;48.690;9.562;2023-08-17T04:42:03;18.20;99.90
48019;DHT22;33786;48.690;9.562;2023-08-17T04:44:30;18.20;99.90
48019;DHT22;33786;48.690;9.562;2023-08-17T04:46:57;18.30;99.90
48019;DHT22;33786;48.690;9.562;2023-08-17T04:49:24;18.30;99.90
48019;DHT22;33786;48.690;9.562;2023-08-17T04:51:52;18.40;99.90
48019;DHT22;33786;48.690;9.562;2023-08-17T04:54:19;18.40;99.90
48019;DHT22;33786;48.690;9.562;2023-08-17T04:56:45;18.40;99.90
48019;DHT22;33786;48.690;9.562;2023-08-17T04:59:12;18.40;99.90
48019;DHT22;33786;48.690;9.562;2023-08-17T05:01:39;18.50;99.90
48019;DHT22;33786;48.690;9.562;2023-08-17T05:04:08;18.50;99.90
48019;DHT22;33786;48.690;9.562;2023-08-17T05:06:35;18.60;99.90
48019;DHT22;33786;48.690;9.562;2023-08-17T05:09:03;18.50;99.90
48019;DHT22;33786;48.690;9.562;2023-08-17T05:11:32;18.60;99.90
48019;DHT22;33786;48.690;9.562;2023-08-17T05:13:59;18.60;99.90
48019;DHT22;33786;48.690;9.562;2023-08-17T05:16:26;18.70;99.90
48019;DHT22;33786;48.690;9.562;2023-08-17T05:18:52;18.80;99.90
48019;DHT22;33786;48.690;9.562;2023-08-17T05:21:20;18.80;99.90
48019;DHT22;33786;48.690;9.562;2023-08-17T05:23:46;19.00;99.90
48019;DHT22;33786;48.690;9.562;2023-08-17T05:26:13;19.10;99.90
48019;DHT22;33786;48.690;9.562;2023-08-17T05:28:42;19.10;99.90
48019;DHT22;33786;48.690;9.562;2023-08-17T05:31:09;19.20;99.90
48019;DHT22;33786;48.690;9.562;2023-08-17T05:33:36;19.20;99.90
48019;DHT22;33786;48.690;9.562;2023-08-17T05:36:03;19.40;99.90
48019;DHT22;33786;48.690;9.562;2023-08-17T05:38:30;19.40;99.90
48019;DHT22;33786;48.690;9.562;2023-08-17T05:40:57;19.50;99.90
48019;DHT22;33786;48.690;9.562;2023-08-17T05:43:24;19.50;99.90
48019;DHT22;33786;48.690;9.562;2023-08-17T05:45:51;19.60;99.90
48019;DHT22;33786;48.690;9.562;2023-08-17T05:48:21;19.60;99.90
48019;DHT22;33786;48.690;9.562;2023-08-17T05:50:48;19.70;99.90
48019;DHT22;33786;48.690;9.562;2023-08-17T05:53:14;19.80;99.90
48019;DHT22;33786;48.690;9.562;2023-08-17T05:55:41;19.80;99.90
48019;DHT22;33786;48.690;9.562;2023-08-17T05:58:08;20.10;99.90
48019;DHT22;33786;48.690;9.562;2023-08-17T06:00:35;20.20;99.90
48019;DHT22;33786;48.690;9.562;2023-08-17T06:03:01;20.20;99.90
48019;DHT22;33786;48.690;9.562;2023-08-17T06:05:29;20.30;99.90
48019;DHT22;33786;48.690;9.562;2023-08-17T06:07:56;20.30;99.90
48019;DHT22;33786;48.690;9.562;2023-08-17T06:10:23;20.30;99.90
48019;DHT22;33786;48.690;9.562;2023-08-17T06:12:53;20.20;99.90
48019;DHT22;33786;48.690;9.562;2023-08-17T06:15:20;20.20;99.90
48019;DHT22;33786;48.690;9.562;2023-08-17T06:17:47;20.40;99.90
48019;DHT22;33786;48.690;9.562;2023-08-17T06:20:16;20.60;99.90
48019;DHT22;33786;48.690;9.562;2023-08-17T06:22:43;20.70;99.90
48019;DHT22;33786;48.690;9.562;2023-08-17T06:25:10;20.70;99.90
48019;DHT22;33786;48.690;9.562;2023-08-17T06:27:37;20.80;99.90
48019;DHT22;33786;48.690;9.562;2023-08-17T06:30:04;20.90;99.90
48019;DHT22;33786;48.690;9.562;2023-08-17T06:32:31;20.60;99.90
48019;DHT22;33786;48.690;9.562;2023-08-17T06:34:57;20.60;99.90
48019;DHT22;33786;48.690;9.562;2023-08-17T06:37:24;20.80;99.90
48019;DHT22;33786;48.690;9.562;2023-08-17T06:39:51;20.90;99.90
48019;DHT22;33786;48.690;9.562;2023-08-17T06:42:18;20.70;99.90
48019;DHT22;33786;48.690;9.562;2023-08-17T06:44:45;20.70;99.90
48019;DHT22;33786;48.690;9.562;2023-08-17T06:47:11;20.50;99.90
48019;DHT22;33786;48.690;9.562;2023-08-17T06:49:38;20.60;99.90
48019;DHT22;33786;48.690;9.562;2023-08-17T06:52:05;20.60;99.90
48019;DHT22;33786;48.690;9.562;2023-08-17T06:54:32;20.70;99.90
48019;DHT22;33786;48.690;9.562;2023-08-17T06:56:59;20.90;99.90
48019;DHT22;33786;48.690;9.562;2023-08-17T06:59:25;20.80;99.90
48019;DHT22;33786;48.690;9.562;2023-08-17T07:01:52;20.80;99.90
48019;DHT22;33786;48.690;9.562;2023-08-17T07:04:19;20.80;99.90
48019;DHT22;33786;48.690;9.562;2023-08-17T07:06:46;21.00;99.90
48019;DHT22;33786;48.690;9.562;2023-08-17T07:09:13;21.20;99.90
48019;DHT22;33786;48.690;9.562;2023-08-17T07:11:40;21.50;99.90
48019;DHT22;33786;48.690;9.562;2023-08-17T07:14:06;21.70;99.90
48019;DHT22;33786;48.690;9.562;2023-08-17T07:16:33;21.80;99.90
48019;DHT22;33786;48.690;9.562;2023-08-17T07:19:00;21.80;99.90
48019;DHT22;33786;48.690;9.562;2023-08-17T07:21:27;22.00;99.90
48019;DHT22;33786;48.690;9.562;2023-08-17T07:23:54;22.30;99.90
48019;DHT22;33786;48.690;9.562;2023-08-17T07:26:21;22.50;99.90
48019;DHT22;33786;48.690;9.562;2023-08-17T07:28:49;22.50;99.90
48019;DHT22;33786;48.690;9.562;2023-08-17T07:31:16;22.40;99.90
48019;DHT22;33786;48.690;9.562;2023-08-17T07:33:43;22.40;99.90
48019;DHT22;33786;48.690;9.562;2023-08-17T07:36:09;22.70;99.90
48019;DHT22;33786;48.690;9.562;2023-08-17T07:38:36;23.00;99.90
48019;DHT22;33786;48.690;9.562;2023-08-17T07:41:03;23.40;99.90
48019;DHT22;33786;48.690;9.562;2023-08-17T07:43:29;23.50;99.90
48019;DHT22;33786;48.690;9.562;2023-08-17T07:45:57;23.70;99.90
48019;DHT22;33786;48.690;9.562;2023-08-17T07:48:23;23.90;99.90
48019;DHT22;33786;48.690;9.562;2023-08-17T07:50:51;24.30;99.90
48019;DHT22;33786;48.690;9.562;2023-08-17T07:53:18;25.00;99.90
48019;DHT22;33786;48.690;9.562;2023-08-17T07:55:45;26.20;99.90
48019;DHT22;33786;48.690;9.562;2023-08-17T07:58:12;26.40;99.90
48019;DHT22;33786;48.690;9.562;2023-08-17T08:00:39;26.30;99.90
48019;DHT22;33786;48.690;9.562;2023-08-17T08:03:06;26.20;99.90
48019;DHT22;33786;48.690;9.562;2023-08-17T08:05:33;26.00;99.90
48019;DHT22;33786;48.690;9.562;2023-08-17T08:07:59;25.60;99.90
48019;DHT22;33786;48.690;9.562;2023-08-17T08:10:27;25.40;99.90
48019;DHT22;33786;48.690;9.562;2023-08-17T08:12:54;25.60;99.90
48019;DHT22;33786;48.690;9.562;2023-08-17T08:15:20;26.20;99.90
48019;DHT22;33786;48.690;9.562;2023-08-17T08:17:47;27.30;99.90
48019;DHT22;33786;48.690;9.562;2023-08-17T08:20:14;27.60;99.90
48019;DHT22;33786;48.690;9.562;2023-08-17T08:22:40;29.00;99.90
48019;DHT22;33786;48.690;9.562;2023-08-17T08:25:07;29.60;98.90
48019;DHT22;33786;48.690;9.562;2023-08-17T08:27:34;30.60;97.40
48019;DHT22;33786;48.690;9.562;2023-08-17T08:30:01;31.50;95.70
48019;DHT22;33786;48.690;9.562;2023-08-17T08:32:28;32.00;95.30
48019;DHT22;33786;48.690;9.562;2023-08-17T08:34:56;32.30;94.30
48019;DHT22;33786;48.690;9.562;2023-08-17T08:37:23;32.70;93.60
48019;DHT22;33786;48.690;9.562;2023-08-17T08:39:51;32.60;93.80
48019;DHT22;33786;48.690;9.562;2023-08-17T08:42:18;31.60;94.40
48019;DHT22;33786;48.690;9.562;2023-08-17T08:44:45;30.40;94.70
48019;DHT22;33786;48.690;9.562;2023-08-17T08:47:12;30.50;96.10
48019;DHT22;33786;48.690;9.562;2023-08-17T08:49:39;30.40;95.40
48019;DHT22;33786;48.690;9.562;2023-08-17T08:52:12;30.40;95.60
48019;DHT22;33786;48.690;9.562;2023-08-17T08:54:39;30.50;95.00
48019;DHT22;33786;48.690;9.562;2023-08-17T08:57:08;30.70;94.70
48019;DHT22;33786;48.690;9.562;2023-08-17T08:59:39;30.80;95.90
48019;DHT22;33786;48.690;9.562;2023-08-17T09:02:12;31.40;95.20
48019;DHT22;33786;48.690;9.562;2023-08-17T09:04:40;31.60;95.00
48019;DHT22;33786;48.690;9.562;2023-08-17T09:07:07;32.20;94.50
48019;DHT22;33786;48.690;9.562;2023-08-17T09:09:35;32.40;93.60
48019;DHT22;33786;48.690;9.562;2023-08-17T09:12:02;32.70;93.90
48019;DHT22;33786;48.690;9.562;2023-08-17T09:14:28;32.60;93.10
48019;DHT22;33786;48.690;9.562;2023-08-17T09:16:55;32.50;92.90
48019;DHT22;33786;48.690;9.562;2023-08-17T09:19:25;33.10;92.40
48019;DHT22;33786;48.690;9.562;2023-08-17T09:21:52;33.60;91.40
48019;DHT22;33786;48.690;9.562;2023-08-17T09:24:18;33.30;92.30
48019;DHT22;33786;48.690;9.562;2023-08-17T09:26:45;33.70;91.10
48019;DHT22;33786;48.690;9.562;2023-08-17T09:29:19;34.30;90.70
48019;DHT22;33786;48.690;9.562;2023-08-17T09:31:46;34.60;90.70
48019;DHT22;33786;48.690;9.562;2023-08-17T09:34:16;34.80;90.20
48019;DHT22;33786;48.690;9.562;2023-08-17T09:36:45;34.80;89.00
48019;DHT22;33786;48.690;9.562;2023-08-17T09:39:12;35.50;89.00
48019;DHT22;33786;48.690;9.562;2023-08-17T09:41:40;35.70;88.10
48019;DHT22;33786;48.690;9.562;2023-08-17T09:44:09;35.30;87.40
48019;DHT22;33786;48.690;9.562;2023-08-17T09:46:37;35.20;88.50
48019;DHT22;33786;48.690;9.562;2023-08-17T09:49:05;35.20;88.10
48019;DHT22;33786;48.690;9.562;2023-08-17T09:51:32;35.20;88.00
48019;DHT22;33786;48.690;9.562;2023-08-17T09:53:58;35.00;90.00
48019;DHT22;33786;48.690;9.562;2023-08-17T09:56:26;34.40;88.90
48019;DHT22;33786;48.690;9.562;2023-08-17T09:58:53;34.30;89.80
48019;DHT22;33786;48.690;9.562;2023-08-17T10:01:20;33.80;89.90
48019;DHT22;33786;48.690;9.562;2023-08-17T10:03:48;33.70;90.50
48019;DHT22;33786;48.690;9.562;2023-08-17T10:06:17;33.20;90.80
48019;DHT22;33786;48.690;9.562;2023-08-17T10:08:46;33.40;91.40
48019;DHT22;33786;48.690;9.562;2023-08-17T10:11:14;33.30;91.10
48019;DHT22;33786;48.690;9.562;2023-08-17T10:13:43;33.60;91.90
48019;DHT22;33786;48.690;9.562;2023-08-17T10:18:49;33.40;91.30
48019;DHT22;33786;48.690;9.562;2023-08-17T10:21:19;33.10;91.10
48019;DHT22;33786;48.690;9.562;2023-08-17T10:23:48;33.20;91.60
48019;DHT22;33786;48.690;9.562;2023-08-17T10:26:15;33.30;90.80
48019;DHT22;33786;48.690;9.562;2023-08-17T10:28:42;33.00;90.70
48019;DHT22;33786;48.690;9.562;2023-08-17T10:31:08;32.90;91.60
48019;DHT22;33786;48.690;9.562;2023-08-17T10:33:37;32.50;90.90
48019;DHT22;33786;48.690;9.562;2023-08-17T10:36:06;32.50;91.60
48019;DHT22;33786;48.690;9.562;2023-08-17T10:38:33;32.70;91.80
48019;DHT22;33786;48.690;9.562;2023-08-17T10:41:09;32.90;91.40
48019;DHT22;33786;48.690;9.562;2023-08-17T10:43:55;32.80;91.80
48019;DHT22;33786;48.690;9.562;2023-08-17T10:46:32;33.00;91.10
48019;DHT22;33786;48.690;9.562;2023-08-17T10:49:03;33.00;90.80
48019;DHT22;33786;48.690;9.562;2023-08-17T10:51:31;32.70;92.50
48019;DHT22;33786;48.690;9.562;2023-08-17T10:53:58;32.60;92.20
48019;DHT22;33786;48.690;9.562;2023-08-17T10:56:26;32.30;92.80
48019;DHT22;33786;48.690;9.562;2023-08-17T10:58:53;32.00;93.10
48019;DHT22;33786;48.690;9.562;2023-08-17T11:01:32;31.80;92.90
48019;DHT22;33786;48.690;9.562;2023-08-17T11:04:10;31.70;93.50
48019;DHT22;33786;48.690;9.562;2023-08-17T11:06:38;31.60;93.20
48019;DHT22;33786;48.690;9.562;2023-08-17T11:09:08;31.80;93.20
48019;DHT22;33786;48.690;9.562;2023-08-17T11:11:35;32.10;92.60
48019;DHT22;33786;48.690;9.562;2023-08-17T11:14:02;32.20;92.00
48019;DHT22;33786;48.690;9.562;2023-08-17T11:16:29;32.50;92.20
48019;DHT22;33786;48.690;9.562;2023-08-17T11:18:56;32.60;91.90
48019;DHT22;33786;48.690;9.562;2023-08-17T11:21:25;32.30;91.10
48019;DHT22;33786;48.690;9.562;2023-08-17T11:23:54;32.50;92.00
48019;DHT22;33786;48.690;9.562;2023-08-17T11:26:21;32.70;90.90
48019;DHT22;33786;48.690;9.562;2023-08-17T11:28:49;32.90;91.70
48019;DHT22;33786;48.690;9.562;2023-08-17T11:31:16;33.00;91.10
48019;DHT22;33786;48.690;9.562;2023-08-17T11:33:43;33.00;90.60
48019;DHT22;33786;48.690;9.562;2023-08-17T11:36:11;33.30;90.10
48019;DHT22;33786;48.690;9.562;2023-08-17T11:38:42;33.20;89.10
48019;DHT22;33786;48.690;9.562;2023-08-17T11:41:09;33.00;88.10
48019;DHT22;33786;48.690;9.562;2023-08-17T11:43:43;32.90;88.50
48019;DHT22;33786;48.690;9.562;2023-08-17T11:46:11;32.70;89.20
48019;DHT22;33786;48.690;9.562;2023-08-17T11:48:38;32.70;89.20
48019;DHT22;33786;48.690;9.562;2023-08-17T11:51:05;32.90;90.10
48019;DHT22;33786;48.690;9.562;2023-08-17T11:53:35;33.00;89.60
48019;DHT22;33786;48.690;9.562;2023-08-17T11:56:02;33.30;89.70
48019;DHT22;33786;48.690;9.562;2023-08-17T11:58:40;33.20;89.90
48019;DHT22;33786;48.690;9.562;2023-08-17T12:01:10;33.30;90.50
48019;DHT22;33786;48.690;9.562;2023-08-17T12:03:38;33.60;90.60
48019;DHT22;33786;48.690;9.562;2023-08-17T12:06:06;33.70;90.10
48019;DHT22;33786;48.690;9.562;2023-08-17T12:08:33;33.50;89.50
48019;DHT22;33786;48.690;9.562;2023-08-17T12:11:00;33.50;90.90
48019;DHT22;33786;48.690;9.562;2023-08-17T12:13:34;33.20;90.70
48019;DHT22;33786;48.690;9.562;2023-08-17T12:16:01;33.00;91.50
48019;DHT22;33786;48.690;9.562;2023-08-17T12:18:31;32.70;91.30
48019;DHT22;33786;48.690;9.562;2023-08-17T12:20:58;32.60;91.20
48019;DHT22;33786;48.690;9.562;2023-08-17T12:23:25;32.50;91.60
48019;DHT22;33786;48.690;9.562;2023-08-17T12:25:52;32.30;91.40
48019;DHT22;33786;48.690;9.562;2023-08-17T12:28:19;32.40;91.40
48019;DHT22;33786;48.690;9.562;2023-08-17T12:30:46;32.70;91.60
48019;DHT22;33786;48.690;9.562;2023-08-17T12:33:13;32.40;91.30
48019;DHT22;33786;48.690;9.562;2023-08-17T12:35:39;32.20;91.50
48019;DHT22;33786;48.690;9.562;2023-08-17T12:38:06;31.70;91.90
48019;DHT22;33786;48.690;9.562;2023-08-17T12:40:33;31.20;92.30
48019;DHT22;33786;48.690;9.562;2023-08-17T12:43:00;30.80;93.00
48019;DHT22;33786;48.690;9.562;2023-08-17T12:45:26;30.40;93.60
48019;DHT22;33786;48.690;9.562;2023-08-17T12:47:54;30.00;94.10
48019;DHT22;33786;48.690;9.562;2023-08-17T12:50:21;29.80;94.60
48019;DHT22;33786;48.690;9.562;2023-08-17T12:52:47;29.40;95.10
48019;DHT22;33786;48.690;9.562;2023-08-17T12:55:14;29.30;95.80
48019;DHT22;33786;48.690;9.562;2023-08-17T12:57:41;29.10;96.00
48019;DHT22;33786;48.690;9.562;2023-08-17T13:00:08;29.00;96.20
48019;DHT22;33786;48.690;9.562;2023-08-17T13:02:35;28.70;96.30
48019;DHT22;33786;48.690;9.562;2023-08-17T13:05:02;28.50;96.70
48019;DHT22;33786;48.690;9.562;2023-08-17T13:07:29;28.40;97.00
48019;DHT22;33786;48.690;9.562;2023-08-17T13:09:55;28.20;97.50
48019;DHT22;33786;48.690;9.562;2023-08-17T13:12:22;28.10;98.30
48019;DHT22;33786;48.690;9.562;2023-08-17T13:14:49;27.90;98.60
48019;DHT22;33786;48.690;9.562;2023-08-17T13:17:16;27.80;98.60
48019;DHT22;33786;48.690;9.562;2023-08-17T13:19:43;27.70;98.60
48019;DHT22;33786;48.690;9.562;2023-08-17T13:22:10;27.60;98.80
48019;DHT22;33786;48.690;9.562;2023-08-17T13:24:37;27.40;99.00
48019;DHT22;33786;48.690;9.562;2023-08-17T13:27:04;27.30;99.00
48019;DHT22;33786;48.690;9.562;2023-08-17T13:29:31;27.20;99.40
48019;DHT22;33786;48.690;9.562;2023-08-17T13:31:58;27.10;99.60
48019;DHT22;33786;48.690;9.562;2023-08-17T13:34:32;26.90;99.70
48019;DHT22;33786;48.690;9.562;2023-08-17T13:36:59;26.90;99.90
48019;DHT22;33786;48.690;9.562;2023-08-17T13:39:26;26.80;99.90
48019;DHT22;33786;48.690;9.562;2023-08-17T13:41:53;26.70;99.90
48019;DHT22;33786;48.690;9.562;2023-08-17T13:44:19;26.70;99.90
48019;DHT22;33786;48.690;9.562;2023-08-17T13:46:46;26.70;99.90
48019;DHT22;33786;48.690;9.562;2023-08-17T13:49:13;26.60;99.90
48019;DHT22;33786;48.690;9.562;2023-08-17T13:51:40;26.60;99.90
48019;DHT22;33786;48.690;9.562;2023-08-17T13:54:06;26.50;99.90
48019;DHT22;33786;48.690;9.562;2023-08-17T13:56:33;26.50;99.90
48019;DHT22;33786;48.690;9.562;2023-08-17T13:59:00;26.50;99.90
48019;DHT22;33786;48.690;9.562;2023-08-17T14:01:29;26.50;99.90
48019;DHT22;33786;48.690;9.562;2023-08-17T14:03:55;26.50;99.90
48019;DHT22;33786;48.690;9.562;2023-08-17T14:06:22;26.50;99.90
48019;DHT22;33786;48.690;9.562;2023-08-17T14:08:49;26.50;99.90
48019;DHT22;33786;48.690;9.562;2023-08-17T14:11:16;26.40;99.90
48019;DHT22;33786;48.690;9.562;2023-08-17T14:13:42;26.30;99.90
48019;DHT22;33786;48.690;9.562;2023-08-17T14:16:09;26.20;99.90
48019;DHT22;33786;48.690;9.562;2023-08-17T14:18:36;26.20;99.90
48019;DHT22;33786;48.690;9.562;2023-08-17T14:21:03;26.20;99.90
48019;DHT22;33786;48.690;9.562;2023-08-17T14:23:29;26.10;99.90
48019;DHT22;33786;48.690;9.562;2023-08-17T14:25:56;26.10;99.90
48019;DHT22;33786;48.690;9.562;2023-08-17T14:28:23;26.00;99.90
48019;DHT22;33786;48.690;9.562;2023-08-17T14:30:49;26.00;99.90
48019;DHT22;33786;48.690;9.562;2023-08-17T14:33:18;26.00;99.90
48019;DHT22;33786;48.690;9.562;2023-08-17T14:35:45;25.90;99.90
48019;DHT22;33786;48.690;9.562;2023-08-17T14:38:12;25.90;99.90
48019;DHT22;33786;48.690;9.562;2023-08-17T14:40:42;25.90;99.90
48019;DHT22;33786;48.690;9.562;2023-08-17T14:43:10;25.80;99.90
48019;DHT22;33786;48.690;9.562;2023-08-17T14:45:38;25.80;99.90
48019;DHT22;33786;48.690;9.562;2023-08-17T14:48:05;25.80;99.90
48019;DHT22;33786;48.690;9.562;2023-08-17T14:50:32;25.70;99.90
48019;DHT22;33786;48.690;9.562;2023-08-17T14:52:58;25.60;99.90
48019;DHT22;33786;48.690;9.562;2023-08-17T14:55:25;25.50;99.90
48019;DHT22;33786;48.690;9.562;2023-08-17T14:57:52;25.50;99.90
48019;DHT22;33786;48.690;9.562;2023-08-17T15:00:18;25.40;99.90
48019;DHT22;33786;48.690;9.562;2023-08-17T15:02:45;25.40;99.90
48019;DHT22;33786;48.690;9.562;2023-08-17T15:05:12;25.40;99.90
48019;DHT22;33786;48.690;9.562;2023-08-17T15:07:39;25.40;99.90
48019;DHT22;33786;48.690;9.562;2023-08-17T15:10:06;25.30;99.90
48019;DHT22;33786;48.690;9.562;2023-08-17T15:12:33;25.20;99.90
48019;DHT22;33786;48.690;9.562;2023-08-17T15:15:00;25.20;99.90
48019;DHT22;33786;48.690;9.562;2023-08-17T15:17:27;25.10;99.90
48019;DHT22;33786;48.690;9.562;2023-08-17T15:19:54;25.00;99.90
48019;DHT22;33786;48.690;9.562;2023-08-17T15:22:21;25.00;99.90
48019;DHT22;33786;48.690;9.562;2023-08-17T15:24:48;25.00;99.90
48019;DHT22;33786;48.690;9.562;2023-08-17T15:27:15;24.90;99.90
48019;DHT22;33786;48.690;9.562;2023-08-17T15:29:41;24.90;99.90
48019;DHT22;33786;48.690;9.562;2023-08-17T15:32:08;24.80;99.90
48019;DHT22;33786;48.690;9.562;2023-08-17T15:34:35;24.70;99.90
48019;DHT22;33786;48.690;9.562;2023-08-17T15:37:02;24.70;99.90